• Join FlightAware (Why Join?)
  • Login
  • US Flag 
08:25AM EDT


 

Airport Tracker/Info


-or-


 

Live Flight TrackerFlight Track Log ✈ UAL118 ✈ 13-Apr-2013 ✈ EDDF / FRA - KEWR

Flight Track Log - Related Links

Times and Time Zones

All times are in EDT time to prevent confusion due to time zone crossing. See the UAL118 flight status page for this flight to view local times or setup timezone preferences in your user account.

Time Position Orientation Groundspeed Altitude Reporting Facility
EDT Latitude Longitude Course Direction KTS MPH feet Rate Location/Type
03:07AM 50.1753 8.1243 298° West  Level FlightAware Approximate
03:08AM 50.2209 7.9717 299° West  Level FlightAware Approximate
03:08AM 50.0260 8.2470 299° West 243 280 6,000  Level FlightAware
03:08AM 50.0410 8.2000 296° West 238 274 6,200 600 Climbing FlightAware
03:09AM 50.0540 8.1520 293° West 240 276 6,600 840 Climbing FlightAware
03:09AM 50.0640 8.1220 297° West 245 282 6,900 600 Climbing FlightAware
03:09AM 50.0770 8.0940 306° West 248 285 7,000 1,440 Climbing FlightAware
03:10AM 50.1020 8.0470 310° West 246 283 8,100 2,400 Climbing FlightAware
03:10AM 50.1190 8.0140 309° West 256 295 9,200 1,920 Climbing FlightAware
03:12AM 50.1820 7.8920 309° West 310 357 11,500 1,980 Climbing FlightAware
03:13AM 50.2510 7.7570 309° West 326 375 14,400 2,400 Climbing FlightAware
03:14AM 50.3010 7.7110 330° Northwest 337 388 16,100 2,400 Climbing FlightAware
03:14AM 50.3680 7.6650 336° Northwest 337 388 17,800 2,220 Climbing FlightAware
03:15AM 50.4300 7.6220 336° Northwest 351 404 19,300 2,100 Climbing FlightAware
03:16AM 50.4970 7.5760 336° Northwest 350 403 20,800 1,860 Climbing FlightAware
03:16AM 50.5570 7.5330 336° Northwest 361 415 22,000 1,680 Climbing FlightAware
03:17AM 50.6160 7.4760 328° Northwest 364 419 23,100 1,620 Climbing FlightAware
03:18AM 50.6790 7.4110 327° Northwest 368 423 24,300 1,500 Climbing FlightAware
03:19AM 50.7360 7.3510 326° Northwest 374 430 25,300 1,380 Climbing FlightAware
03:19AM 50.7550 7.3230 317° Northwest 371 427 25,600 1,260 Climbing FlightAware
03:19AM 50.7980 7.2410 310° West 377 434 26,500 1,320 Climbing FlightAware
03:20AM 50.8520 7.1470 312° West 379 436 27,500 1,260 Climbing FlightAware
03:21AM 50.9030 7.0620 314° West 391 450 28,300 1,200 Climbing FlightAware
03:22AM 50.9580 6.9680 313° West 397 457 29,200 1,080 Climbing FlightAware
03:22AM 50.9980 6.8930 310° West 402 463 29,800 1,020 Climbing FlightAware
03:23AM 51.0550 6.7890 311° West 401 461 30,600 1,020 Climbing FlightAware
03:24AM 51.1100 6.6880 311° West 406 467 31,400 1,080 Climbing FlightAware
03:24AM 51.1600 6.5960 311° West 404 465 32,200 1,260 Climbing FlightAware
03:25AM 51.2090 6.5060 311° West 403 464 33,100 1,200 Climbing FlightAware
03:26AM 51.2630 6.4050 311° West 400 460 33,900 600 Climbing FlightAware
03:26AM 51.3120 6.3130 310° West 402 463 34,000 60 Climbing FlightAware
03:27AM 51.3670 6.2100 311° West 402 463 34,000  Level FlightAware
03:28AM 51.4160 6.1180 311° West 402 463 34,000  Level FlightAware
03:29AM 51.4710 6.0150 311° West 405 466 34,000  Level FlightAware
03:29AM 51.5190 5.9240 310° West 405 466 34,000  Level FlightAware
03:30AM 51.5670 5.8340 311° West 405 466 34,000  Level FlightAware
03:31AM 51.6230 5.7270 310° West 403 464 34,000  Level FlightAware
03:31AM 51.6700 5.6360 310° West 403 464 34,000 -1,560 Level FlightAware
03:32AM 51.6924 5.5855 310° West 450 518 32,500  Descending FlightAware UK
03:32AM 51.7190 5.5430 310° West 403 464 34,000  Climbing FlightAware
03:32AM 51.7345 5.5026 310° West 450 518 32,500 -2,760 Descending FlightAware UK
03:33AM 51.7566 5.4618 311° West 450 518 32,500 3,000 Level FlightAware UK
03:33AM 51.7720 5.4420 311° West 403 464 34,000  Climbing FlightAware
03:33AM 51.7921 5.3928 311° West 448 516 32,500  Descending FlightAware UK
03:33AM 51.8200 5.3480 311° West 403 464 34,000 1,440 Climbing FlightAware
03:34AM 51.8680 5.2550 310° West 403 464 34,000 -1,500 Level FlightAware
03:34AM 51.8896 5.1972 310° West 450 518 32,500  Descending FlightAware UK
03:35AM 51.9210 5.1510 310° West 403 464 34,000  Climbing FlightAware
03:35AM 51.9419 5.1024 310° West 450 518 32,500  Descending FlightAware UK
03:36AM 51.9700 5.0560 310° West 403 464 34,000  Climbing FlightAware
03:36AM 51.9844 5.0186 310° West 450 518 32,500 -2,760 Descending FlightAware UK
03:36AM 52.0053 4.9765 309° West 450 518 32,500 3,000 Level FlightAware UK
03:36AM 52.0240 4.9490 309° West 404 465 34,000  Climbing FlightAware
03:37AM 52.0479 4.8927 309° West 450 518 32,500  Descending FlightAware UK
03:37AM 52.0690 4.8600 309° West 403 464 34,000  Climbing FlightAware
03:37AM 52.1052 4.7813 309° West 452 520 32,500  Descending FlightAware UK
03:38AM 52.1120 4.7750 309° West 403 464 34,000  Climbing FlightAware
03:38AM 52.1339 4.7254 309° West 450 518 32,500 -2,340 Descending FlightAware UK
03:38AM 52.1551 4.6832 309° West 450 518 32,500 4,680 Level FlightAware UK
03:38AM 52.1600 4.6810 309° West 404 465 34,000  Climbing FlightAware
03:39AM 52.1823 4.6260 309° West 450 518 32,500  Descending FlightAware UK
03:39AM 52.2130 4.5760 309° West 405 466 34,000  Climbing FlightAware
03:39AM 52.2314 4.5269 309° West 450 518 32,500  Descending FlightAware UK
03:40AM 52.2590 4.4840 309° West 404 465 34,000  Climbing FlightAware
03:40AM 52.2748 4.4433 309° West 450 518 32,500  Descending FlightAware UK
03:40AM 52.3080 4.3860 309° West 404 465 34,000 1,260 Climbing FlightAware
03:41AM 52.3620 4.2770 309° West 405 466 34,000 -1,380 Level FlightAware
03:41AM 52.3801 4.2298 309° West 448 516 32,500  Descending FlightAware UK
03:42AM 52.4080 4.1830 309° West 406 467 34,000  Climbing FlightAware
03:42AM 52.4225 4.1443 309° West 450 518 32,500 -2,580 Descending FlightAware UK
03:42AM 52.4435 4.1014 309° West 450 518 32,500 3,180 Level FlightAware UK
03:42AM 52.4620 4.0730 309° West 406 467 34,000  Climbing FlightAware
03:43AM 52.4858 4.0153 309° West 452 520 32,500  Descending FlightAware UK
03:43AM 52.5020 3.9920 309° West 406 467 34,000  Climbing FlightAware
03:43AM 52.5137 3.9576 309° West 452 520 32,500 -2,760 Descending FlightAware UK
03:44AM 52.5346 3.9143 308° West 452 520 32,500 3,000 Level FlightAware UK
03:44AM 52.5550 3.8830 308° West 406 467 34,000  Climbing FlightAware
03:44AM 52.5769 3.8276 308° West 452 520 32,500  Descending FlightAware UK
03:45AM 52.6060 3.7780 308° West 406 467 34,000  Climbing FlightAware
03:45AM 52.6191 3.7408 308° West 452 520 32,500 -2,760 Descending FlightAware UK
03:45AM 52.6400 3.6973 308° West 452 520 32,500 3,600 Level FlightAware UK
03:45AM 52.6540 3.6810 308° West 406 467 34,000  Climbing FlightAware
03:45AM 52.6683 3.6394 308° West 452 520 32,500  Descending FlightAware UK
03:46AM 52.6900 3.6050 308° West 407 468 34,000  Climbing FlightAware
03:46AM 52.7032 3.5668 308° West 452 520 32,500  Descending FlightAware UK
03:46AM 52.7370 3.5090 308° West 407 468 34,000  Climbing FlightAware
03:47AM 52.7588 3.4502 308° West 454 522 32,500  Descending FlightAware UK
03:47AM 52.7900 3.3980 308° West 406 467 34,000  Climbing FlightAware
03:48AM 52.8145 3.3340 308° West 454 522 32,500  Descending FlightAware UK
03:48AM 52.8410 3.2910 308° West 406 467 34,000  Climbing FlightAware
03:48AM 52.8631 3.2315 308° West 454 522 32,500  Descending FlightAware UK
03:49AM 52.8880 3.1930 308° West 406 467 34,000  Climbing FlightAware
03:49AM 52.8980 3.1583 308° West 454 522 32,500 -2,400 Descending FlightAware UK
03:49AM 52.9254 3.1001 308° West 454 522 32,500 3,600 Level FlightAware UK
03:49AM 52.9340 3.0960 308° West 406 467 34,000  Climbing FlightAware
03:49AM 52.9461 3.0559 308° West 456 525 32,500 -2,700 Descending FlightAware UK
03:50AM 52.9667 3.0122 308° West 454 522 32,500 3,720 Level FlightAware UK
03:50AM 52.9810 2.9970 308° West 406 467 34,000  Climbing FlightAware
03:50AM 52.9947 2.9528 308° West 454 522 32,500 -2,520 Descending FlightAware UK
03:50AM 53.0151 2.9091 308° West 452 520 32,500 3,300 Level FlightAware UK
03:51AM 53.0330 2.8860 308° West 406 467 34,000  Climbing FlightAware
03:51AM 53.0429 2.8496 308° West 454 522 32,500  Descending FlightAware UK
03:51AM 53.0790 2.7870 308° West 406 467 34,000  Climbing FlightAware
03:52AM 53.0982 2.7319 308° West 452 520 32,500 -2,220 Descending FlightAware UK
03:52AM 53.1187 2.6884 308° West 452 520 32,500 4,080 Level FlightAware UK
03:52AM 53.1290 2.6800 308° West 405 466 34,000  Climbing FlightAware
03:52AM 53.1396 2.6431 308° West 452 520 32,500 -2,820 Descending FlightAware UK
03:53AM 53.1596 2.5996 308° West 452 520 32,500 3,600 Level FlightAware UK
03:53AM 53.1750 2.5820 308° West 405 466 34,000  Climbing FlightAware
03:53AM 53.1869 2.5403 308° West 452 520 32,500 -2,700 Descending FlightAware UK
03:53AM 53.2029 2.4912 299° West 450 518 32,500 3,060 Level FlightAware UK
03:53AM 53.2180 2.4640 299° West 400 460 34,000  Climbing FlightAware
03:54AM 53.2200 2.4038 299° West 450 518 32,500 -2,460 Descending FlightAware UK
03:54AM 53.2288 2.3492 285° West 450 518 32,500 4,260 Level FlightAware UK
03:54AM 53.2380 2.3450 285° West 400 460 34,000  Climbing FlightAware
03:54AM 53.2364 2.2955 285° West 452 520 32,500 -2,760 Descending FlightAware UK
03:55AM 53.2440 2.2413 283° West 452 520 32,500 3,600 Level FlightAware UK
03:55AM 53.2560 2.2200 283° West 399 459 34,000  Climbing FlightAware
03:55AM 53.2539 2.1697 283° West 450 518 32,500 -2,580 Descending FlightAware UK
03:55AM 53.2616 2.1158 283° West 452 520 32,500 3,180 Level FlightAware UK
03:56AM 53.2750 2.0890 283° West 399 459 34,000  Climbing FlightAware
03:56AM 53.2744 2.0256 283° West 452 520 32,500  Descending FlightAware UK
03:56AM 53.2920 1.9680 283° West 399 459 34,000  Climbing FlightAware
03:56AM 53.2901 1.9175 283° West 452 520 32,500 -2,700 Descending FlightAware UK
03:57AM 53.2980 1.8635 284° West 452 520 32,500 3,720 Level FlightAware UK
03:57AM 53.3090 1.8510 284° West 399 459 34,000  Climbing FlightAware
03:57AM 53.3082 1.7914 284° West 452 520 32,500 -2,520 Descending FlightAware UK
03:57AM 53.3158 1.7378 283° West 452 520 32,500 3,420 Level FlightAware UK
03:58AM 53.3290 1.7099 283° West 401 461 34,000  Climbing FlightAware ADS-B
03:58AM 53.3258 1.6660 283° West 454 522 32,500  Descending FlightAware UK
03:58AM 53.3417 1.6193 283° West 400 460 34,000  Climbing FlightAware ADS-B
03:58AM 53.3384 1.5756 283° West 456 525 32,500 -2,700 Descending FlightAware UK
03:59AM 53.3460 1.5214 283° West 454 522 32,500 2,520 Level FlightAware UK
03:59AM 53.3630 1.4673 283° West 399 459 34,000  Climbing FlightAware ADS-B
03:59AM 53.3636 1.3957 283° West 454 522 32,500  Descending FlightAware UK
04:00AM 53.3769 1.3660 283° West 398 458 34,000 2,220 Climbing FlightAware ADS-B
04:00AM 53.3894 1.2749 283° West 398 458 34,000 -1,800 Level FlightAware ADS-B
04:00AM 53.3884 1.2149 283° West 454 522 32,500 -2,100 Descending FlightAware UK
04:01AM 53.3981 1.1434 283° West 454 522 32,500 2,880 Level FlightAware UK
04:01AM 53.4105 1.1202 283° West 399 459 34,000  Climbing FlightAware ADS-B
04:01AM 53.4078 1.0719 283° West 454 522 32,500 -2,280 Descending FlightAware UK
04:02AM 53.4175 0.9993 283° West 454 522 32,500 2,340 Level FlightAware UK
04:02AM 53.4310 0.9660 283° West 396 456 34,000  Climbing FlightAware
04:02AM 53.4295 0.9098 283° West 454 522 32,500 -2,700 Descending FlightAware UK
04:02AM 53.4368 0.8552 283° West 454 522 32,500 3,060 Level FlightAware UK
04:03AM 53.4490 0.8340 283° West 396 456 34,000  Climbing FlightAware
04:03AM 53.4486 0.7666 283° West 456 525 32,500  Descending FlightAware UK
04:03AM 53.4668 0.6978 283° West 394 453 34,000  Climbing FlightAware ADS-B
04:04AM 53.4652 0.6411 283° West 454 522 32,500 -2,460 Descending FlightAware UK
04:04AM 53.4722 0.5874 282° West 454 522 32,500 3,720 Level FlightAware UK
04:04AM 53.4835 0.5704 282° West 394 453 34,000  Climbing FlightAware ADS-B
04:04AM 53.4814 0.5164 282° West 454 522 32,500  Descending FlightAware UK
04:04AM 53.4957 0.4760 282° West 392 451 34,000  Climbing FlightAware ADS-B
04:05AM 53.4953 0.4088 282° West 452 520 32,500  Descending FlightAware UK
04:05AM 53.5075 0.3836 282° West 391 450 34,000  Climbing FlightAware ADS-B
04:05AM 53.5067 0.3205 282° West 452 520 32,500  Descending FlightAware UK
04:06AM 53.5192 0.2927 282° West 390 449 34,000  Climbing FlightAware ADS-B
04:06AM 53.5180 0.2318 282° West 452 520 32,500  Descending FlightAware UK
04:06AM 53.5323 0.1895 282° West 390 449 34,000 1,920 Climbing FlightAware ADS-B
04:07AM 53.5436 0.0986 282° West 388 447 34,000  Level FlightAware ADS-B
04:07AM 53.5547 0.0093 282° West 388 447 34,000  Level FlightAware ADS-B
04:08AM 53.5657 -0.0784 282° West 388 447 34,000  Level FlightAware ADS-B
04:08AM 53.5769 -0.1697 282° West 387 445 34,000 -1,500 Level FlightAware ADS-B
04:09AM 53.5798 -0.2630 282° West 452 520 32,500 -1,500 Descending FlightAware UK
04:09AM 53.5905 -0.3507 282° West 454 522 32,500 2,280 Level FlightAware UK
04:09AM 53.6010 -0.3640 282° West 385 443 34,000  Climbing FlightAware
04:10AM 53.6034 -0.4561 282° West 454 522 32,500  Descending FlightAware UK
04:10AM 53.6140 -0.4790 282° West 384 442 34,000  Climbing FlightAware
04:10AM 53.6160 -0.5617 282° West 454 522 32,500  Descending FlightAware UK
04:11AM 53.6308 -0.6154 282° West 384 442 34,000 1,740 Climbing FlightAware ADS-B
04:11AM 53.6416 -0.7066 281° West 383 441 34,000 -1,740 Level FlightAware ADS-B
04:12AM 53.6411 -0.7726 281° West 452 520 32,500  Descending FlightAware UK
04:12AM 53.6607 -0.8702 281° West 382 440 34,000  Climbing FlightAware ADS-B
04:12AM 53.6597 -0.9301 281° West 452 520 32,500  Descending FlightAware UK
04:13AM 53.6710 -0.9600 281° West 381 438 34,000  Climbing FlightAware
04:13AM 53.6658 -0.9820 281° West 452 520 32,500  Descending FlightAware UK
04:13AM 53.6758 -0.9998 282° West 381 438 34,000  Climbing FlightAware ADS-B
04:13AM 53.6739 -1.0519 282° West 450 518 32,500  Descending FlightAware UK
04:13AM 53.6857 -1.0876 282° West 381 438 34,000  Climbing FlightAware ADS-B
04:14AM 53.6838 -1.1393 282° West 452 520 32,500 -2,700 Descending FlightAware UK
04:14AM 53.6899 -1.1924 281° West 452 520 32,500 2,640 Level FlightAware UK
04:14AM 53.7010 -1.2250 281° West 380 437 34,000 2,220 Climbing FlightAware
04:15AM 53.7102 -1.3032 281° West 380 437 34,000  Level FlightAware ADS-B
04:15AM 53.7202 -1.3927 281° West 380 437 34,000 -1,800 Level FlightAware ADS-B
04:15AM 53.7195 -1.4540 281° West 454 522 32,500  Descending FlightAware UK
04:16AM 53.7302 -1.4828 281° West 380 437 34,000  Climbing FlightAware ADS-B
04:16AM 53.7294 -1.5413 281° West 452 520 32,500  Descending FlightAware UK
04:16AM 53.7399 -1.5716 281° West 379 436 34,000  Climbing FlightAware ADS-B
04:16AM 53.7389 -1.6281 281° West 452 520 32,500  Descending FlightAware UK
04:17AM 53.7516 -1.6779 281° West 379 436 34,000 1,800 Climbing FlightAware ADS-B
04:17AM 53.7611 -1.7654 280° West 379 436 34,000  Level FlightAware ADS-B
04:18AM 53.7707 -1.8538 280° West 379 436 34,000  Level FlightAware ADS-B
04:18AM 53.7810 -1.9510 280° West 378 435 34,000 -1,440 Level FlightAware
04:19AM 53.7843 -2.0465 280° West 456 525 32,500  Descending FlightAware UK
04:19AM 53.7950 -2.0790 280° West 378 435 34,000 4,500 Climbing FlightAware
04:19AM 53.7966 -2.0986 278° West 379 436 34,000 -3,600 Level FlightAware ADS-B
04:20AM 53.7973 -2.1689 278° West 456 525 32,500  Descending FlightAware UK
04:20AM 53.8070 -2.1980 278° West 377 434 34,000  Climbing FlightAware
04:20AM 53.8065 -2.2567 278° West 460 529 32,500 -2,760 Descending FlightAware UK
04:20AM 53.8119 -2.3083 280° West 460 529 32,500 3,600 Level FlightAware UK
04:20AM 53.8190 -2.3130 280° West 377 434 34,000  Climbing FlightAware
04:21AM 53.8193 -2.3773 280° West 458 527 32,500  Descending FlightAware UK
04:21AM 53.8330 -2.4450 280° West 375 432 34,000  Climbing FlightAware
04:22AM 53.8334 -2.5162 280° West 458 527 32,500 -2,400 Descending FlightAware UK
04:22AM 53.8387 -2.5685 280° West 458 527 32,500 4,260 Level FlightAware UK
04:22AM 53.8440 -2.5560 280° West 373 429 34,000  Climbing FlightAware
04:22AM 53.8439 -2.6196 280° West 456 525 32,500 -2,760 Descending FlightAware UK
04:22AM 53.8492 -2.6711 280° West 454 522 32,500 3,600 Level FlightAware UK
04:23AM 53.8550 -2.6680 280° West 371 427 34,000  Climbing FlightAware
04:23AM 53.8561 -2.7396 280° West 454 522 32,500  Descending FlightAware UK
04:23AM 53.8670 -2.7830 280° West 370 426 34,000  Climbing FlightAware
04:23AM 53.8629 -2.8080 280° West 452 520 32,500 -3,600 Descending FlightAware UK
04:24AM 53.8698 -2.8756 280° West 452 520 32,500  Level FlightAware UK
04:24AM 53.8749 -2.9268 280° West 452 520 32,500 4,500 Level FlightAware UK
04:24AM 53.8790 -2.9140 280° West 368 423 34,000  Climbing FlightAware
04:24AM 53.8799 -2.9778 280° West 452 520 32,500  Descending FlightAware UK
04:25AM 53.8930 -3.0370 280° West 366 421 34,000 1,260 Climbing FlightAware
04:25AM 53.9210 -3.1460 294° West 366 421 34,000 -1,680 Level FlightAware
04:26AM 53.9288 -3.2027 294° West 452 520 32,500 -2,340 Descending FlightAware UK
04:26AM 53.9433 -3.2664 291° West 452 520 32,500 3,600 Level FlightAware UK
04:26AM 53.9470 -3.2550 291° West 365 420 34,000  Climbing FlightAware
04:27AM 53.9644 -3.3630 291° West 452 520 32,500  Descending FlightAware UK
04:27AM 53.9690 -3.3540 291° West 365 420 34,000  Climbing FlightAware
04:27AM 53.9819 -3.4435 291° West 456 525 32,500  Descending FlightAware UK
04:27AM 53.9960 -3.4800 291° West 364 419 34,000  Climbing FlightAware
04:28AM 54.0027 -3.5393 291° West 456 525 32,500 -2,700 Descending FlightAware UK
04:28AM 54.0132 -3.5875 290° West 456 525 32,500 3,060 Level FlightAware UK
04:28AM 54.0230 -3.6030 290° West 362 417 34,000  Climbing FlightAware
04:29AM 54.0308 -3.6674 290° West 456 525 32,500 -2,460 Descending FlightAware UK
04:29AM 54.0413 -3.7152 291° West 456 525 32,500 4,260 Level FlightAware UK
04:29AM 54.0460 -3.7090 291° West 361 415 34,000  Climbing FlightAware
04:29AM 54.0518 -3.7629 291° West 456 525 32,500 -2,760 Descending FlightAware UK
04:29AM 54.0624 -3.8105 291° West 456 525 32,500 3,000 Level FlightAware UK
04:30AM 54.0720 -3.8270 291° West 360 414 34,000 1,680 Climbing FlightAware
04:30AM 54.0970 -3.9320 292° West 358 412 34,000 -1,500 Level FlightAware
04:31AM 54.1062 -3.9987 292° West 458 527 32,500 -2,400 Descending FlightAware UK
04:31AM 54.1168 -4.0459 291° West 458 527 32,500 3,600 Level FlightAware UK
04:31AM 54.1240 -4.0520 291° West 357 411 34,000  Climbing FlightAware
04:31AM 54.1309 -4.1086 291° West 458 527 32,500 -2,580 Descending FlightAware UK
04:32AM 54.1415 -4.1554 291° West 456 525 32,500 3,900 Level FlightAware UK
04:32AM 54.1470 -4.1560 291° West 354 407 34,000  Climbing FlightAware
04:32AM 54.1554 -4.2178 291° West 458 527 32,500 -2,460 Descending FlightAware UK
04:32AM 54.1658 -4.2643 291° West 458 527 32,500 4,260 Level FlightAware UK
04:32AM 54.1710 -4.2600 291° West 351 404 34,000  Climbing FlightAware
04:33AM 54.1763 -4.3106 291° West 458 527 32,500 -2,340 Descending FlightAware UK
04:33AM 54.1901 -4.3724 291° West 458 527 32,500 3,000 Level FlightAware UK
04:33AM 54.1960 -4.3730 291° West 349 402 34,000  Climbing FlightAware
04:34AM 54.2071 -4.4488 291° West 456 525 32,500  Descending FlightAware UK
04:34AM 54.2190 -4.4780 291° West 347 399 34,000  Climbing FlightAware
04:34AM 54.2276 -4.5406 291° West 456 525 32,500 -2,460 Descending FlightAware UK
04:34AM 54.2377 -4.5864 291° West 456 525 32,500 3,420 Level FlightAware UK
04:35AM 54.2450 -4.5950 291° West 345 397 34,000  Climbing FlightAware
04:35AM 54.2511 -4.6471 291° West 454 522 32,500 -2,700 Descending FlightAware UK
04:35AM 54.2611 -4.6925 291° West 454 522 32,500 3,720 Level FlightAware UK
04:35AM 54.2660 -4.6890 291° West 343 395 34,000  Climbing FlightAware
04:36AM 54.2744 -4.7532 291° West 454 522 32,500 -2,520 Descending FlightAware UK
04:36AM 54.2844 -4.7987 291° West 452 520 32,500 4,080 Level FlightAware UK
04:36AM 54.2890 -4.7970 291° West 342 394 34,000  Climbing FlightAware
04:36AM 54.2976 -4.8593 291° West 452 520 32,500 -2,400 Descending FlightAware UK
04:37AM 54.3075 -4.9047 290° West 450 518 32,500 3,600 Level FlightAware UK
04:37AM 54.3130 -4.9080 290° West 342 394 34,000  Climbing FlightAware
04:37AM 54.3207 -4.9653 290° West 450 518 32,500 -2,580 Descending FlightAware UK
04:37AM 54.3306 -5.0107 290° West 448 516 32,500 3,900 Level FlightAware UK
04:37AM 54.3360 -5.0100 290° West 341 392 34,000  Climbing FlightAware
04:38AM 54.3469 -5.0862 290° West 448 516 32,500  Descending FlightAware UK
04:38AM 54.3610 -5.1250 290° West 342 394 34,000  Climbing FlightAware
04:39AM 54.3730 -5.2073 290° West 448 516 32,500  Descending FlightAware UK
04:39AM 54.3830 -5.2280 290° West 342 394 34,000  Climbing FlightAware
04:39AM 54.3892 -5.2831 290° West 448 516 32,500 -2,520 Descending FlightAware UK
04:39AM 54.3989 -5.3288 290° West 450 518 32,500 4,080 Level FlightAware UK
04:39AM 54.4020 -5.3210 290° West 342 394 34,000  Climbing FlightAware
04:40AM 54.4119 -5.3898 290° West 450 518 32,500 -2,400 Descending FlightAware UK
04:40AM 54.4216 -5.4357 290° West 450 518 32,500 3,600 Level FlightAware UK
04:40AM 54.4280 -5.4420 290° West 344 396 34,000  Climbing FlightAware
04:40AM 54.4346 -5.4970 290° West 450 518 32,500 -2,580 Descending FlightAware UK
04:41AM 54.4443 -5.5425 290° West 450 518 32,500 3,900 Level FlightAware UK
04:41AM 54.4500 -5.5460 290° West 344 396 34,000  Climbing FlightAware
04:41AM 54.4573 -5.6038 290° West 448 516 32,500 -2,460 Descending FlightAware UK
04:41AM 54.4670 -5.6499 290° West 448 516 32,500 3,420 Level FlightAware UK
04:42AM 54.4750 -5.6620 290° West 346 398 34,000  Climbing FlightAware
04:42AM 54.4798 -5.7116 290° West 450 518 32,500 -2,700 Descending FlightAware UK
04:42AM 54.4895 -5.7582 290° West 452 520 32,500 3,720 Level FlightAware UK
04:42AM 54.4960 -5.7660 290° West 348 400 34,000  Climbing FlightAware
04:43AM 54.5059 -5.8361 290° West 452 520 32,500  Descending FlightAware UK
04:43AM 54.5180 -5.8670 290° West 350 403 34,000  Climbing FlightAware
04:43AM 54.5253 -5.9303 290° West 454 522 32,500 -2,400 Descending FlightAware UK
04:44AM 54.5351 -5.9775 290° West 456 525 32,500 3,600 Level FlightAware UK
04:44AM 54.5410 -5.9810 290° West 352 405 34,000  Climbing FlightAware
04:44AM 54.5482 -6.0405 290° West 458 527 32,500 -2,580 Descending FlightAware UK
04:44AM 54.5579 -6.0875 290° West 458 527 32,500 3,900 Level FlightAware UK
04:44AM 54.5630 -6.0880 290° West 352 405 34,000  Climbing FlightAware
04:45AM 54.5708 -6.1497 290° West 456 525 32,500 -2,460 Descending FlightAware UK
04:45AM 54.5803 -6.1972 289° West 458 527 32,500 4,260 Level FlightAware UK
04:45AM 54.5860 -6.1970 289° West 352 405 34,000  Climbing FlightAware
04:45AM 54.5900 -6.2450 289° West 458 527 32,500 -2,760 Descending FlightAware UK
04:46AM 54.5995 -6.2920 289° West 458 527 32,500 3,600 Level FlightAware UK
04:46AM 54.6060 -6.2960 289° West 353 406 34,000  Climbing FlightAware
04:46AM 54.6122 -6.3555 289° West 458 527 32,500 -2,220 Descending FlightAware UK
04:46AM 54.6253 -6.4195 289° West 460 529 32,500 3,180 Level FlightAware UK
04:46AM 54.6300 -6.4140 289° West 353 406 34,000  Climbing FlightAware
04:47AM 54.6380 -6.4832 289° West 460 529 32,500 -2,400 Descending FlightAware UK
04:47AM 54.6477 -6.5306 290° West 460 529 32,500 4,500 Level FlightAware UK
04:47AM 54.6530 -6.5310 290° West 353 406 34,000  Climbing FlightAware
04:47AM 54.6574 -6.5783 290° West 458 527 32,500 -2,700 Descending FlightAware UK
04:48AM 54.6670 -6.6259 289° West 458 527 32,500 3,060 Level FlightAware UK
04:48AM 54.6760 -6.6440 289° West 353 406 34,000  Climbing FlightAware
04:48AM 54.6827 -6.7054 289° West 458 527 32,500 -2,460 Descending FlightAware UK
04:48AM 54.6923 -6.7531 289° West 460 529 32,500 3,420 Level FlightAware UK
04:49AM 54.7000 -6.7630 289° West 354 407 34,000  Climbing FlightAware
04:49AM 54.7049 -6.8170 289° West 458 527 32,500 -2,700 Descending FlightAware UK
04:49AM 54.7143 -6.8649 289° West 460 529 32,500 3,720 Level FlightAware UK
04:49AM 54.7220 -6.8720 289° West 354 407 34,000  Climbing FlightAware
04:50AM 54.7268 -6.9289 289° West 460 529 32,500 -2,520 Descending FlightAware UK
04:50AM 54.7362 -6.9768 289° West 460 529 32,500 4,080 Level FlightAware UK
04:50AM 54.7430 -6.9790 289° West 353 406 34,000  Climbing FlightAware
04:50AM 54.7487 -7.0407 289° West 460 529 32,500 -2,400 Descending FlightAware UK
04:51AM 54.7581 -7.0886 289° West 458 527 32,500 3,600 Level FlightAware UK
04:51AM 54.7670 -7.0990 289° West 352 405 34,000  Climbing FlightAware
04:51AM 54.7706 -7.1524 289° West 456 525 32,500 -2,580 Descending FlightAware UK
04:51AM 54.7799 -7.2001 289° West 458 527 32,500 3,900 Level FlightAware UK
04:51AM 54.7870 -7.2050 289° West 352 405 34,000  Climbing FlightAware
04:52AM 54.7924 -7.2637 289° West 458 527 32,500 -2,460 Descending FlightAware UK
04:52AM 54.8016 -7.3115 288° West 458 527 32,500 3,420 Level FlightAware UK
04:52AM 54.8110 -7.3250 288° West 352 405 34,000  Climbing FlightAware
04:52AM 54.8138 -7.3753 288° West 458 527 32,500 -2,700 Descending FlightAware UK
04:53AM 54.8228 -7.4225 288° West 458 527 32,500 3,720 Level FlightAware UK
04:53AM 54.8320 -7.4330 288° West 350 403 34,000  Climbing FlightAware
04:53AM 54.8349 -7.4859 288° West 458 527 32,500 -2,520 Descending FlightAware UK
04:53AM 54.8440 -7.5334 288° West 456 525 32,500 4,080 Level FlightAware UK
04:53AM 54.8510 -7.5360 288° West 346 398 34,000  Climbing FlightAware
04:54AM 54.8561 -7.5966 288° West 458 527 32,500  Descending FlightAware UK
04:54AM 54.8750 -7.6590 288° West 345 397 34,000  Climbing FlightAware
04:54AM 54.8770 -7.7072 288° West 456 525 32,500 -2,580 Descending FlightAware UK
04:55AM 54.8859 -7.7545 288° West 456 525 32,500 3,900 Level FlightAware UK
04:55AM 54.8950 -7.7650 288° West 343 395 34,000  Climbing FlightAware
04:55AM 54.8979 -7.8174 288° West 456 525 32,500 -2,460 Descending FlightAware UK
04:55AM 54.9066 -7.8647 288° West 454 522 32,500 3,420 Level FlightAware UK
04:56AM 54.9180 -7.8830 288° West 343 395 34,000  Climbing FlightAware
04:56AM 54.9183 -7.9277 288° West 454 522 32,500 -2,700 Descending FlightAware UK
04:56AM 54.9271 -7.9749 288° West 452 520 32,500 3,720 Level FlightAware UK
04:56AM 54.9370 -7.9880 288° West 342 394 34,000  Climbing FlightAware
04:57AM 54.9388 -8.0378 288° West 452 520 32,500 -2,520 Descending FlightAware UK
04:57AM 54.9476 -8.0849 288° West 452 520 32,500 4,080 Level FlightAware UK
04:57AM 54.9570 -8.0930 288° West 342 394 34,000  Climbing FlightAware
04:57AM 54.9592 -8.1479 288° West 452 520 32,500 -2,400 Descending FlightAware UK
04:58AM 54.9679 -8.1950 288° West 452 520 32,500 3,600 Level FlightAware UK
04:58AM 54.9790 -8.2110 288° West 342 394 34,000  Climbing FlightAware
04:58AM 54.9795 -8.2580 288° West 452 520 32,500 -2,580 Descending FlightAware UK
04:58AM 54.9881 -8.3052 288° West 452 520 32,500 3,900 Level FlightAware UK
04:58AM 54.9980 -8.3160 288° West 342 394 34,000  Climbing FlightAware
04:59AM 54.9997 -8.3682 288° West 452 520 32,500 -2,460 Descending FlightAware UK
04:59AM 55.0083 -8.4156 288° West 452 520 32,500 3,420 Level FlightAware UK
04:59AM 55.0200 -8.4330 288° West 343 395 34,000  Climbing FlightAware
04:59AM 55.0197 -8.4788 288° West 452 520 32,500 -2,700 Descending FlightAware UK
05:00AM 55.0282 -8.5262 287° West 450 518 32,500 3,720 Level FlightAware UK
05:00AM 55.0390 -8.5380 287° West 342 394 34,000  Climbing FlightAware
05:00AM 55.0397 -8.5895 287° West 452 520 32,500 -2,520 Descending FlightAware UK
05:00AM 55.0483 -8.6371 287° West 452 520 32,500 4,080 Level FlightAware UK
05:00AM 55.0580 -8.6430 287° West 344 396 34,000  Climbing FlightAware
05:01AM 55.0596 -8.7002 287° West 452 520 32,500 -2,400 Descending FlightAware UK
05:01AM 55.0681 -8.7479 287° West 452 520 32,500 4,500 Level FlightAware UK
05:01AM 55.0770 -8.7480 287° West 344 396 34,000  Climbing FlightAware
05:01AM 55.0765 -8.7958 287° West 452 520 32,500 -2,700 Descending FlightAware UK
05:02AM 55.0851 -8.8437 287° West 452 520 32,500 3,060 Level FlightAware UK
05:02AM 55.0970 -8.8580 287° West 345 397 34,000  Climbing FlightAware
05:02AM 55.0994 -8.9237 287° West 452 520 32,500 -2,460 Descending FlightAware UK
05:02AM 55.1079 -8.9717 287° West 452 520 32,500 4,260 Level FlightAware UK
05:02AM 55.1170 -8.9720 287° West 345 397 34,000 2,040 Climbing FlightAware
05:03AM 55.1360 -9.0770 288° West 346 398 34,000  Level FlightAware
05:04AM 55.1580 -9.2000 287° West 348 400 34,000  Level FlightAware
05:05AM 55.1790 -9.3220 287° West 351 404 34,000  Level FlightAware
05:05AM 55.1950 -9.4150 287° West 352 405 34,000  Level FlightAware
05:06AM 55.2160 -9.5380 287° West 354 407 34,000  Level FlightAware
05:07AM 55.2330 -9.6340 287° West 355 409 34,000  Level FlightAware
05:07AM 55.2570 -9.7720 287° West 355 409 34,000  Level FlightAware
05:08AM 55.2870 -9.9500 287° West 355 409 34,000  Level FlightAware
05:09AM 55.3120 -10.1020 286° West 356 410 34,000  Level FlightAware
05:11AM 55.3440 -10.2960 286° West 358 412 34,000  Level FlightAware
05:12AM 55.3830 -10.5340 286° West 358 412 34,000  Level FlightAware
05:14AM 55.4150 -10.7300 286° West 361 415 34,000  Level FlightAware
05:14AM 55.4480 -10.9400 286° West 362 417 34,000  Level FlightAware
05:16AM 55.4860 -11.1820 286° West 361 415 34,000  Level FlightAware
05:17AM 55.5080 -11.3240 285° West 361 415 34,000  Level FlightAware
05:18AM 55.5380 -11.5210 285° West 360 414 34,000  Level FlightAware
05:19AM 55.5590 -11.6570 285° West 360 414 34,000  Level FlightAware
05:19AM 55.5710 -11.7470 283° West 360 414 34,000  Level FlightAware
05:20AM 55.5870 -11.8690 283° West 360 414 34,000  Level FlightAware
05:21AM 55.6100 -11.9980 288° West 360 414 34,000  Level FlightAware
05:21AM 55.6260 -12.1180 283° West 360 414 34,000  Level FlightAware
05:22AM 55.6380 -12.2150 282° West 360 414 34,000  Level FlightAware
05:23AM 55.6510 -12.3130 283° West 360 414 34,000  Level FlightAware
05:23AM 55.6640 -12.4110 283° West 360 414 34,000  Level FlightAware
05:24AM 55.6770 -12.5090 283° West 360 414 34,000 840 Level FlightAware
05:26AM 55.7370 -12.8810 286° West 354 407 36,000 720 Climbing FlightAware
05:27AM 55.7570 -13.0290 284° West 356 410 36,000  Level FlightAware
05:27AM 55.7690 -13.1260 282° West 356 410 36,000  Level FlightAware
05:28AM 55.7820 -13.2230 283° West 356 410 36,000  Level FlightAware
05:29AM 55.7940 -13.3200 282° West 356 410 36,000  Level FlightAware
05:30AM 55.8100 -13.4410 283° West 356 410 36,000  Level FlightAware
05:30AM 55.8230 -13.5380 283° West 356 410 36,000  Level FlightAware
05:31AM 55.8350 -13.6360 282° West 356 410 36,000  Level FlightAware
05:32AM 55.8480 -13.7330 283° West 356 410 36,000  Level FlightAware
05:32AM 55.8600 -13.8300 282° West 356 410 36,000  Level FlightAware
05:33AM 55.8760 -13.9520 283° West 356 410 36,000  Level FlightAware
05:34AM 55.8890 -14.0490 283° West 356 410 36,000  Level FlightAware
05:34AM 55.9010 -14.1460 282° West 356 410 36,000  Level FlightAware
05:35AM 55.9140 -14.2440 283° West 356 410 36,000  Level FlightAware
05:36AM 55.9300 -14.3650 283° West 356 410 36,000  Level FlightAware
05:38AM 55.9430 -14.6818 274° West  Level Estimated
05:39AM 55.9505 -14.8758 274° West  Level Estimated
05:40AM 55.9577 -15.0699 274° West  Level Estimated
05:41AM 55.9646 -15.2641 274° West  Level Estimated
05:42AM 55.9714 -15.4645 274° West  Level Estimated
05:43AM 55.9779 -15.6649 273° West  Level Estimated
05:44AM 55.9841 -15.8654 273° West  Level Estimated
05:45AM 55.9899 -16.0659 273° West  Level Estimated
05:46AM 55.9955 -16.2665 273° West  Level Estimated
05:47AM 56.0006 -16.4672 273° West  Level Estimated
05:48AM 56.0055 -16.6679 273° West  Level Estimated
05:49AM 56.0101 -16.8686 272° West  Level Estimated
05:50AM 56.0143 -17.0694 272° West  Level Estimated
05:51AM 56.0182 -17.2703 272° West  Level Estimated
05:52AM 56.0217 -17.4712 272° West  Level Estimated
05:53AM 56.0249 -17.6721 272° West  Level Estimated
05:54AM 56.0279 -17.8730 272° West  Level Estimated
05:55AM 56.0304 -18.0740 271° West  Level Estimated
05:56AM 56.0327 -18.2750 271° West  Level Estimated
05:57AM 56.0346 -18.4760 271° West  Level Estimated
05:58AM 56.0362 -18.6771 271° West  Level Estimated
05:59AM 56.0375 -18.8782 271° West  Level Estimated
06:00AM 56.0384 -19.0792 271° West  Level Estimated
06:01AM 56.0391 -19.2803 270° West  Level Estimated
06:02AM 56.0393 -19.4814 270° West  Level Estimated
06:03AM 56.0393 -19.6825 270° West  Level Estimated
06:04AM 56.0389 -19.8836 270° West  Level Estimated
06:05AM 56.0382 -20.0846 270° West  Level Estimated
06:05AM 57.0000 -20.0000 285° West 427 491 36,000  Level ETMS Enhanced Traffic Management System
06:06AM 56.0372 -20.2857 270° West  Level Estimated
06:07AM 56.0359 -20.4868 269° West  Level Estimated
06:08AM 56.0342 -20.6878 269° West  Level Estimated
06:09AM 56.0322 -20.8888 269° West  Level Estimated
06:10AM 56.0299 -21.0898 269° West  Level Estimated
06:11AM 57.2026 -21.4835 283° West 427 491 36,000  Level FlightAware Transoceanic
06:12AM 57.2301 -21.6968 283° West 427 491 36,000  Level FlightAware Transoceanic
06:13AM 57.2573 -21.9103 283° West 427 491 36,000  Level FlightAware Transoceanic
06:14AM 57.2841 -22.1242 283° West 427 491 36,000  Level FlightAware Transoceanic
06:15AM 57.3105 -22.3384 283° West 427 491 36,000  Level FlightAware Transoceanic
06:16AM 57.3366 -22.5529 283° West 427 491 36,000  Level FlightAware Transoceanic
06:17AM 57.3622 -22.7677 282° West 427 491 36,000  Level FlightAware Transoceanic
06:18AM 57.3876 -22.9827 282° West 427 491 36,000  Level FlightAware Transoceanic
06:19AM 57.4125 -23.1981 282° West 427 491 36,000  Level FlightAware Transoceanic
06:20AM 57.4371 -23.4138 282° West 427 491 36,000  Level FlightAware Transoceanic
06:21AM 57.4613 -23.6297 282° West 427 491 36,000  Level FlightAware Transoceanic
06:22AM 57.4852 -23.8460 282° West 427 491 36,000  Level FlightAware Transoceanic
06:23AM 57.5087 -24.0625 281° West 427 491 36,000  Level FlightAware Transoceanic
06:24AM 57.5318 -24.2793 281° West 427 491 36,000  Level FlightAware Transoceanic
06:25AM 57.5545 -24.4964 281° West 427 491 36,000  Level FlightAware Transoceanic
06:26AM 57.5769 -24.7137 281° West 427 491 36,000  Level FlightAware Transoceanic
06:27AM 57.5989 -24.9313 281° West 427 491 36,000  Level FlightAware Transoceanic
06:28AM 57.6205 -25.1492 280° West 427 491 36,000  Level FlightAware Transoceanic
06:29AM 57.6418 -25.3673 280° West 427 491 36,000  Level FlightAware Transoceanic
06:30AM 57.6626 -25.5857 280° West 427 491 36,000  Level FlightAware Transoceanic
06:31AM 57.6831 -25.8043 280° West 427 491 36,000  Level FlightAware Transoceanic
06:32AM 57.7032 -26.0232 280° West 427 491 36,000  Level FlightAware Transoceanic
06:33AM 57.7230 -26.2423 279° West 427 491 36,000  Level FlightAware Transoceanic
06:34AM 57.7423 -26.4617 279° West 427 491 36,000  Level FlightAware Transoceanic
06:35AM 57.7613 -26.6813 279° West 427 491 36,000  Level FlightAware Transoceanic
06:36AM 57.7799 -26.9011 279° West 427 491 36,000  Level FlightAware Transoceanic
06:37AM 57.7981 -27.1211 279° West 427 491 36,000  Level FlightAware Transoceanic
06:38AM 57.8159 -27.3414 279° West 427 491 36,000  Level FlightAware Transoceanic
06:39AM 57.8334 -27.5618 278° West 427 491 36,000  Level FlightAware Transoceanic
06:40AM 57.8505 -27.7825 278° West 427 491 36,000  Level FlightAware Transoceanic
06:41AM 57.8672 -28.0034 278° West 427 491 36,000  Level FlightAware Transoceanic
06:42AM 57.8835 -28.2245 278° West 427 491 36,000  Level FlightAware Transoceanic
06:43AM 57.8994 -28.4458 278° West 427 491 36,000  Level FlightAware Transoceanic
06:44AM 57.9149 -28.6673 277° West 427 491 36,000  Level FlightAware Transoceanic
06:45AM 57.9301 -28.8890 277° West 427 491 36,000  Level FlightAware Transoceanic
06:46AM 57.9448 -29.1108 277° West 427 491 36,000  Level FlightAware Transoceanic
06:47AM 57.9592 -29.3328 277° West 427 491 36,000  Level FlightAware Transoceanic
06:48AM 57.9732 -29.5551 277° West 427 491 36,000  Level FlightAware Transoceanic
06:49AM 57.9868 -29.7775 276° West 427 491 36,000  Level FlightAware Transoceanic
06:50AM 57.9993 -29.9881 276° West  Level FlightAware Approximate
06:51AM 58.0115 -30.1988 276° West  Level FlightAware Approximate
06:52AM 58.0072 -30.1875 274° West  Level FlightAware Approximate
06:52AM 58.0000 -30.0000 274° West 433 498 36,000  Level ETMS Enhanced Traffic Management System
06:53AM 58.0151 -30.3990 274° West  Level FlightAware Approximate
06:54AM 58.0225 -30.6106 274° West  Level FlightAware Approximate
06:55AM 58.0297 -30.8223 274° West  Level FlightAware Approximate
06:56AM 58.0364 -31.0341 274° West  Level FlightAware Approximate
06:57AM 58.0428 -31.2460 273° West  Level FlightAware Approximate
06:58AM 58.0638 -32.0419 273° West 433 498 36,000  Level FlightAware Transoceanic
06:59AM 58.0689 -32.2692 272° West 433 498 36,000  Level FlightAware Transoceanic
07:00AM 58.0735 -32.4966 272° West 433 498 36,000  Level FlightAware Transoceanic
07:01AM 58.0778 -32.7240 272° West 433 498 36,000  Level FlightAware Transoceanic
07:02AM 58.0816 -32.9514 272° West 433 498 36,000  Level FlightAware Transoceanic
07:03AM 58.0851 -33.1789 272° West 433 498 36,000  Level FlightAware Transoceanic
07:04AM 58.0881 -33.4065 271° West 433 498 36,000  Level FlightAware Transoceanic
07:05AM 58.0908 -33.6340 271° West 433 498 36,000  Level FlightAware Transoceanic
07:06AM 58.0930 -33.8617 271° West 433 498 36,000  Level FlightAware Transoceanic
07:07AM 58.0948 -34.0893 271° West 433 498 36,000  Level FlightAware Transoceanic
07:08AM 58.0963 -34.3170 271° West 433 498 36,000  Level FlightAware Transoceanic
07:09AM 58.0973 -34.5446 270° West 433 498 36,000  Level FlightAware Transoceanic
07:10AM 58.0979 -34.7723 270° West 433 498 36,000  Level FlightAware Transoceanic
07:11AM 58.0981 -35.0000 270° West 433 498 36,000  Level FlightAware Transoceanic
07:12AM 58.0979 -35.2277 270° West 433 498 36,000  Level FlightAware Transoceanic
07:13AM 58.0973 -35.4554 270° West 433 498 36,000  Level FlightAware Transoceanic
07:14AM 58.0963 -35.6830 269° West 433 498 36,000  Level FlightAware Transoceanic
07:15AM 58.0948 -35.9107 269° West 433 498 36,000  Level FlightAware Transoceanic
07:16AM 58.0930 -36.1383 269° West 433 498 36,000  Level FlightAware Transoceanic
07:17AM 58.0908 -36.3660 269° West 433 498 36,000  Level FlightAware Transoceanic
07:18AM 58.0881 -36.5935 269° West 433 498 36,000  Level FlightAware Transoceanic
07:19AM 58.0851 -36.8211 268° West 433 498 36,000  Level FlightAware Transoceanic
07:20AM 58.0816 -37.0486 268° West 433 498 36,000  Level FlightAware Transoceanic
07:21AM 58.0778 -37.2760 268° West 433 498 36,000  Level FlightAware Transoceanic
07:22AM 58.0735 -37.5034 268° West 433 498 36,000  Level FlightAware Transoceanic
07:23AM 58.0689 -37.7308 268° West 433 498 36,000  Level FlightAware Transoceanic
07:24AM 58.0638 -37.9581 267° West 433 498 36,000  Level FlightAware Transoceanic
07:25AM 58.0583 -38.1853 267° West 433 498 36,000  Level FlightAware Transoceanic
07:26AM 58.0524 -38.4124 267° West 433 498 36,000  Level FlightAware Transoceanic
07:27AM 58.0462 -38.6395 267° West 433 498 36,000  Level FlightAware Transoceanic
07:28AM 58.0395 -38.8665 267° West 433 498 36,000  Level FlightAware Transoceanic
07:29AM 58.0324 -39.0934 267° West 433 498 36,000  Level FlightAware Transoceanic
07:30AM 58.0249 -39.3202 266° West 433 498 36,000  Level FlightAware Transoceanic
07:31AM 58.0170 -39.5469 266° West 433 498 36,000  Level FlightAware Transoceanic
07:32AM 58.0087 -39.7735 266° West 433 498 36,000  Level FlightAware Transoceanic
07:33AM 58.0006 -39.9850 266° West  Level FlightAware Approximate
07:34AM 57.9921 -40.1963 266° West  Level FlightAware Approximate
07:35AM 58.0070 -40.1814 274° West  Level FlightAware Approximate
07:36AM 58.0148 -40.3929 274° West  Level FlightAware Approximate
07:37AM 58.0223 -40.6045 274° West  Level FlightAware Approximate
07:38AM 58.0294 -40.8162 274° West  Level FlightAware Approximate
07:39AM 58.0362 -41.0280 274° West  Level FlightAware Approximate
07:40AM 58.0427 -41.2398 273° West  Level FlightAware Approximate
07:41AM 58.0487 -41.4518 273° West  Level FlightAware Approximate
07:42AM 58.0545 -41.6638 273° West  Level FlightAware Approximate
07:43AM 58.0598 -41.8759 273° West  Level FlightAware Approximate
07:44AM 58.0649 -42.0880 273° West  Level FlightAware Approximate
07:45AM 58.0695 -42.3002 272° West  Level FlightAware Approximate
07:45AM 58.0000 -40.0000 274° West 443 510 36,000  Level ETMS Enhanced Traffic Management System
07:46AM 58.0738 -42.5125 272° West  Level FlightAware Approximate
07:47AM 58.0778 -42.7248 272° West  Level FlightAware Approximate
07:48AM 58.0814 -42.9371 272° West  Level FlightAware Approximate
07:49AM 58.0847 -43.1495 272° West  Level FlightAware Approximate
07:50AM 58.0876 -43.3619 272° West  Level FlightAware Approximate
07:51AM 58.0955 -44.1846 271° West 443 510 36,000  Level FlightAware Transoceanic
07:52AM 58.0968 -44.4175 270° West 443 510 36,000  Level FlightAware Transoceanic
07:53AM 58.0976 -44.6505 270° West 443 510 36,000  Level FlightAware Transoceanic
07:54AM 58.0980 -44.8835 270° West 443 510 36,000  Level FlightAware Transoceanic
07:55AM 58.0980 -45.1165 270° West 443 510 36,000  Level FlightAware Transoceanic
07:56AM 58.0976 -45.3495 270° West 443 510 36,000  Level FlightAware Transoceanic
07:57AM 58.0968 -45.5825 270° West 443 510 36,000  Level FlightAware Transoceanic
07:58AM 58.0955 -45.8154 269° West 443 510 36,000  Level FlightAware Transoceanic
07:59AM 58.0938 -46.0484 269° West 443 510 36,000  Level FlightAware Transoceanic
08:00AM 58.0917 -46.2813 269° West 443 510 36,000  Level FlightAware Transoceanic
08:01AM 58.0891 -46.5141 269° West 443 510 36,000  Level FlightAware Transoceanic
08:02AM 58.0861 -46.7470 269° West 443 510 36,000  Level FlightAware Transoceanic
08:03AM 58.0827 -46.9798 268° West 443 510 36,000  Level FlightAware Transoceanic
08:04AM 58.0789 -47.2126 268° West 443 510 36,000  Level FlightAware Transoceanic
08:05AM 58.0747 -47.4453 268° West 443 510 36,000  Level FlightAware Transoceanic
08:06AM 58.0700 -47.6779 268° West 443 510 36,000  Level FlightAware Transoceanic
08:07AM 58.0649 -47.9105 268° West 443 510 36,000  Level FlightAware Transoceanic
08:08AM 58.0594 -48.1430 267° West 443 510 36,000  Level FlightAware Transoceanic
08:09AM 58.0534 -48.3755 267° West 443 510 36,000  Level FlightAware Transoceanic
08:10AM 58.0471 -48.6078 267° West 443 510 36,000  Level FlightAware Transoceanic
08:11AM 58.0403 -48.8401 267° West 443 510 36,000  Level FlightAware Transoceanic
08:12AM 58.0331 -49.0723 267° West 443 510 36,000  Level FlightAware Transoceanic
08:13AM 58.0254 -49.3044 266° West 443 510 36,000  Level FlightAware Transoceanic
08:14AM 58.0174 -49.5364 266° West 443 510 36,000  Level FlightAware Transoceanic
08:15AM 58.0089 -49.7682 266° West 443 510 36,000  Level FlightAware Transoceanic
08:16AM 58.0008 -49.9797 266° West  Level FlightAware Approximate
08:17AM 57.9923 -50.1910 266° West  Level FlightAware Approximate
08:17AM 58.0000 -50.0000 252° West 469 540 36,000  Level ETMS Enhanced Traffic Management System
08:18AM 57.9687 -50.1606 250° West  Level FlightAware Approximate
08:19AM 57.9296 -50.3591 250° West  Level FlightAware Approximate
08:20AM 57.8902 -50.5571 250° West  Level FlightAware Approximate
08:21AM 57.8505 -50.7547 249° West  Level FlightAware Approximate
08:22AM 57.8105 -50.9519 249° West  Level FlightAware Approximate
08:23AM 57.7138 -51.6252 251° West 469 540 36,000  Level FlightAware Transoceanic
08:24AM 57.6713 -51.8552 251° West 469 540 36,000  Level FlightAware Transoceanic
08:25AM 57.6283 -52.0847 251° West 469 540 36,000  Level FlightAware Transoceanic
08:26AM 57.5849 -52.3136 250° West 469 540 36,000  Level FlightAware Transoceanic
08:27AM 57.5411 -52.5420 250° West 469 540 36,000  Level FlightAware Transoceanic
08:28AM 57.4969 -52.7699 250° West 469 540 36,000  Level FlightAware Transoceanic
08:29AM 57.4522 -52.9972 250° West 469 540 36,000  Level FlightAware Transoceanic
08:30AM 57.4072 -53.2239 250° West 469 540 36,000  Level FlightAware Transoceanic
08:31AM 57.3618 -53.4501 249° West 469 540 36,000  Level FlightAware Transoceanic
08:32AM 57.3159 -53.6757 249° West 469 540 36,000  Level FlightAware Transoceanic
08:33AM 57.2697 -53.9008 249° West 469 540 36,000  Level FlightAware Transoceanic
08:34AM 57.2230 -54.1253 249° West 469 540 36,000  Level FlightAware Transoceanic
08:35AM 57.1759 -54.3492 249° West 469 540 36,000  Level FlightAware Transoceanic
08:36AM 57.1285 -54.5726 249° West 469 540 36,000  Level FlightAware Transoceanic
08:37AM 57.0807 -54.7953 248° West 469 540 36,000  Level FlightAware Transoceanic
08:38AM 57.0324 -55.0175 248° West 469 540 36,000  Level FlightAware Transoceanic
08:39AM 56.9838 -55.2391 248° West 469 540 36,000  Level FlightAware Transoceanic
08:40AM 56.9348 -55.4602 248° West 469 540 36,000  Level FlightAware Transoceanic
08:41AM 56.8853 -55.6806 248° West 469 540 36,000  Level FlightAware Transoceanic
08:41AM 56.9333 -55.6167 247° West 480 552 36,000  Level Gander Center
08:42AM 56.8355 -55.9005 247° West 469 540 36,000  Level FlightAware Transoceanic
08:42AM 56.8667 -55.8667 244° Southwest 480 552 36,000  Level Gander Center
08:43AM 56.7854 -56.1198 247° West 469 540 36,000  Level FlightAware Transoceanic
08:43AM 56.8167 -56.0333 241° Southwest 460 529 36,000  Level Gander Center
08:44AM 56.7348 -56.3385 247° West 469 540 36,000  Level FlightAware Transoceanic
08:44AM 56.7500 -56.3167 247° West 470 541 36,000  Level Gander Center
08:45AM 56.6838 -56.5566 247° West 469 540 36,000  Level FlightAware Transoceanic
08:45AM 56.6833 -56.4833 234° Southwest 470 541 36,000  Level Gander Center
08:46AM 56.6325 -56.7741 247° West 469 540 36,000  Level FlightAware Transoceanic
08:46AM 56.5833 -56.6667 225° Southwest 480 552 36,000  Level Gander Center
08:47AM 56.5000 -56.8333 228° Southwest 470 541 36,000  Level Gander Center
08:48AM 56.4167 -57.0000 228° Southwest 470 541 36,000  Level Gander Center
08:49AM 56.3167 -57.1500 220° Southwest 460 529 36,000  Level Gander Center
08:50AM 56.2333 -57.3500 233° Southwest 460 529 36,000  Level Gander Center
08:51AM 56.2000 -57.4167 228° Southwest 460 529 36,000  Level Gander Center
08:51AM 56.1500 -57.5000 223° Southwest 450 518 36,000  Level Gander Center
08:52AM 56.0667 -57.6667 228° Southwest 450 518 36,000  Level Gander Center
08:53AM 55.9667 -57.8500 226° Southwest 460 529 36,000  Level Gander Center
08:54AM 55.9000 -58.0000 232° Southwest 460 529 36,000  Level Gander Center
08:55AM 55.8000 -58.1667 223° Southwest 460 529 36,000  Level Gander Center
08:56AM 55.7667 -58.2500 235° Southwest 460 529 36,000  Level Gander Center
08:57AM 55.6667 -58.4167 223° Southwest 460 529 36,000  Level Gander Center
08:57AM 55.6167 -58.5000 223° Southwest 460 529 36,000  Level Gander Center
08:58AM 55.5333 -58.6500 226° Southwest 460 529 36,000  Level Gander Center
08:59AM 55.4500 -58.8167 229° Southwest 460 529 36,000  Level Gander Center
09:00AM 55.4000 -58.9000 223° Southwest 460 529 36,000  Level Gander Center
09:00AM 55.3667 -58.9833 235° Southwest 460 529 36,000  Level Gander Center
09:01AM 55.2833 -59.1333 226° Southwest 450 518 36,000  Level Gander Center
09:02AM 55.1833 -59.3000 224° Southwest 450 518 36,000  Level Gander Center
09:03AM 55.1333 -59.3833 224° Southwest 450 518 36,000  Level Gander Center
09:03AM 55.1000 -59.4500 229° Southwest 450 518 36,000  Level Gander Center
09:04AM 55.0000 -59.6167 224° Southwest 450 518 36,000  Level Gander Center
09:05AM 54.9500 -59.7167 229° Southwest 450 518 36,000  Level Gander Center
09:06AM 54.8833 -59.8667 232° Southwest 450 518 36,000  Level Gander Center
09:06AM 54.8500 -59.9167 221° Southwest 450 518 36,000  Level Gander Center
09:07AM 54.7500 -60.0667 221° Southwest 450 518 36,000  Level Gander Center
09:08AM 54.6667 -60.2167 226° Southwest 450 518 36,000  Level Gander Center
09:09AM 54.5667 -60.3833 224° Southwest 450 518 36,000  Level Gander Center
09:10AM 54.5167 -60.4833 229° Southwest 450 518 36,000  Level Gander Center
09:11AM 54.4333 -60.6167 223° Southwest 440 506 36,000  Level Gander Center
09:11AM 54.4000 -60.6833 229° Southwest 440 506 36,000  Level Gander Center
09:12AM 54.3167 -60.8167 223° Southwest 440 506 36,000 240 Level Gander Center
09:13AM 54.2167 -60.9667 221° Southwest 440 506 36,500 720 Climbing Gander Center
09:14AM 54.1333 -61.1167 227° Southwest 440 506 37,500 900 Climbing Gander Center
09:15AM 54.0833 -61.2000 224° Southwest 440 506 38,000 300 Climbing Gander Center
09:16AM 54.0000 -61.3333 223° Southwest 430 495 38,000  Level Gander Center
09:16AM 53.9667 -61.4000 230° Southwest 430 495 38,000  Level Gander Center
09:17AM 53.8833 -61.5333 223° Southwest 420 483 38,000  Level Gander Center
09:18AM 53.8000 -61.6833 227° Southwest 420 483 38,000  Level Gander Center
09:19AM 53.7167 -61.8167 223° Southwest 420 483 38,000  Level Gander Center
09:20AM 53.6333 -61.9667 227° Southwest 420 483 38,000  Level Gander Center
09:21AM 53.5500 -62.0667 216° Southwest 420 483 38,000  Level Gander Center
09:22AM 53.4667 -62.2167 227° Southwest 420 483 38,000  Level Gander Center
09:23AM 53.3500 -62.3500 214° Southwest 430 495 38,000  Level Gander Center
09:24AM 53.2833 -62.4833 230° Southwest 430 495 38,000  Level Gander Center
09:25AM 53.1833 -62.6167 219° Southwest 430 495 38,000  Level Gander Center
09:26AM 53.1000 -62.7500 224° Southwest 430 495 38,000  Level Gander Center
09:27AM 53.0167 -62.9000 227° Southwest 430 495 38,000  Level Gander Center
09:28AM 52.9333 -63.0333 224° Southwest 430 495 38,000  Level Gander Center
09:29AM 52.8500 -63.1667 224° Southwest 420 483 38,000  Level Gander Center
09:30AM 52.7667 -63.3000 224° Southwest 420 483 38,000  Level Gander Center
09:31AM 52.6667 -63.4333 219° Southwest 420 483 38,000  Level Gander Center
09:32AM 52.5667 -63.5667 219° Southwest 430 495 38,000  Level Gander Center
09:33AM 52.5000 -63.7000 231° Southwest 430 495 38,000  Level Gander Center
09:34AM 52.4000 -63.8333 219° Southwest 430 495 38,000  Level Gander Center
09:35AM 52.3500 -63.9000 219° Southwest 430 495 38,000  Level Moncton Center
09:36AM 52.2500 -64.0500 223° Southwest 430 495 38,000  Level Moncton Center
09:37AM 52.1667 -64.1833 224° Southwest 430 495 38,000  Level Moncton Center
09:37AM 52.1333 -64.2333 223° Southwest 430 495 38,000  Level Gander Center
09:38AM 52.0500 -64.3500 221° Southwest 430 495 38,000  Level Gander Center
09:39AM 51.9667 -64.4833 225° Southwest 430 495 38,000  Level Gander Center
09:40AM 51.8833 -64.6167 225° Southwest 430 495 38,000  Level Gander Center
09:41AM 51.7667 -64.7500 215° Southwest 430 495 38,000  Level Gander Center
09:42AM 51.6833 -64.8667 221° Southwest 430 495 38,000  Level Gander Center
09:43AM 51.6000 -65.0000 225° Southwest 420 483 38,000  Level Gander Center
09:44AM 51.5500 -65.0667 220° Southwest 420 483 38,000  Level Moncton Center
09:45AM 51.4500 -65.2000 220° Southwest 420 483 38,000  Level Moncton Center
09:45AM 51.4167 -65.2333 212° Southwest 420 483 38,000  Level Gander Center
09:46AM 51.3667 -65.3000 220° Southwest 420 483 38,000  Level Moncton Center
09:47AM 51.2833 -65.4333 225° Southwest 420 483 38,000  Level Moncton Center
09:48AM 51.2000 -65.5500 221° Southwest 420 483 38,000  Level Moncton Center
09:49AM 51.1000 -65.6833 220° Southwest 420 483 38,000  Level Moncton Center
09:49AM 51.0667 -65.7000 197° South 420 483 38,000  Level Gander Center
09:50AM 50.9833 -65.8500 229° Southwest 420 483 38,000  Level Gander Center
09:51AM 50.8833 -65.9167 203° Southwest 420 483 38,000  Level Montreal Center
09:52AM 50.8000 -66.0333 222° Southwest 430 495 38,000  Level Montreal Center
09:53AM 50.7167 -66.1667 225° Southwest 420 483 38,000  Level Montreal Center
09:54AM 50.6167 -66.2833 217° Southwest 430 495 38,000  Level Montreal Center
09:55AM 50.5333 -66.3833 217° Southwest 430 495 38,000  Level Montreal Center
09:56AM 50.4333 -66.5167 220° Southwest 430 495 38,000  Level Montreal Center
09:57AM 50.3667 -66.6500 232° Southwest 430 495 38,000  Level Moncton Center
09:58AM 50.2833 -66.7500 217° Southwest 430 495 38,000  Level Moncton Center
09:59AM 50.1833 -66.8833 221° Southwest 420 483 38,000  Level Moncton Center
10:00AM 50.1000 -67.0000 222° Southwest 430 495 38,000  Level Moncton Center
10:00AM 50.0667 -67.0167 198° South 420 483 38,000  Level Montreal Center
10:01AM 49.9833 -67.1167 218° Southwest 420 483 38,000  Level Montreal Center
10:02AM 49.9333 -67.2333 236° Southwest 420 483 38,000  Level Moncton Center
10:03AM 49.8167 -67.3500 213° Southwest 420 483 38,000  Level Moncton Center
10:03AM 49.8000 -67.3500 180° South 420 483 38,000  Level Montreal Center
10:04AM 49.7000 -67.4833 221° Southwest 420 483 38,000  Level Montreal Center
10:05AM 49.6333 -67.5667 219° Southwest 420 483 38,000  Level Montreal Center
10:06AM 49.5167 -67.6833 213° Southwest 410 472 38,000  Level Montreal Center
10:07AM 49.4500 -67.8167 232° Southwest 410 472 38,000  Level Montreal Center
10:08AM 49.3500 -67.9333 217° Southwest 410 472 38,000  Level Montreal Center
10:09AM 49.2500 -68.0167 209° Southwest 420 483 38,000  Level Montreal Center
10:10AM 49.1667 -68.1333 222° Southwest 420 483 38,000  Level Montreal Center
10:11AM 49.0667 -68.2333 213° Southwest 420 483 38,000  Level Montreal Center
10:12AM 48.9667 -68.3500 217° Southwest 420 483 38,000  Level Montreal Center
10:13AM 48.8833 -68.4500 218° Southwest 420 483 38,000  Level Montreal Center
10:14AM 48.7833 -68.5333 209° Southwest 420 483 38,000  Level Montreal Center
10:15AM 48.6667 -68.6500 213° Southwest 420 483 38,000  Level Montreal Center
10:20AM 48.1770 -69.1770 213° Southwest 427 491 38,000  Level FlightAware
10:21AM 48.1100 -69.2430 213° Southwest 427 491 38,000  Level FlightAware
10:22AM 48.0440 -69.3070 213° Southwest 427 491 38,000  Level FlightAware
10:22AM 47.9710 -69.3790 213° Southwest 428 493 38,000  Level FlightAware
10:23AM 47.9040 -69.4440 213° Southwest 428 493 38,000  Level FlightAware
10:24AM 47.8390 -69.5070 213° Southwest 428 493 38,000  Level FlightAware
10:25AM 47.7640 -69.5800 213° Southwest 428 493 38,000  Level FlightAware
10:25AM 47.6990 -69.6450 214° Southwest 428 493 38,000  Level FlightAware
10:26AM 47.6260 -69.7180 214° Southwest 428 493 38,000  Level FlightAware
10:27AM 47.5610 -69.7830 214° Southwest 428 493 38,000  Level FlightAware
10:27AM 47.4860 -69.8570 214° Southwest 429 494 38,000  Level FlightAware
10:28AM 47.4200 -69.9220 214° Southwest 429 494 38,000  Level FlightAware
10:29AM 47.3550 -69.9860 214° Southwest 429 494 38,000  Level FlightAware
10:29AM 47.2800 -70.0590 213° Southwest 428 493 38,000  Level FlightAware
10:30AM 47.2160 -70.1220 214° Southwest 427 491 38,000  Level FlightAware
10:31AM 47.1420 -70.1940 214° Southwest 424 488 38,000  Level FlightAware
10:32AM 47.0770 -70.2570 213° Southwest 422 486 38,000  Level FlightAware
10:32AM 47.0120 -70.3200 213° Southwest 420 483 38,000  Level FlightAware
10:33AM 46.9400 -70.3900 214° Southwest 418 481 38,000  Level FlightAware
10:34AM 46.8750 -70.4520 213° Southwest 416 479 38,000  Level FlightAware
10:34AM 46.8110 -70.5140 214° Southwest 413 475 38,000  Level FlightAware
10:35AM 46.7390 -70.5820 213° Southwest 411 473 38,000  Level FlightAware
10:36AM 46.6680 -70.6500 213° Southwest 410 472 38,000  Level FlightAware
10:36AM 46.6050 -70.7090 213° Southwest 410 472 38,000  Level FlightAware
10:37AM 46.5420 -70.7700 214° Southwest 409 471 38,000  Level FlightAware
10:38AM 46.4710 -70.8360 213° Southwest 409 471 38,000  Level FlightAware
10:39AM 46.4080 -70.8960 213° Southwest 410 472 38,000  Level FlightAware
10:39AM 46.3440 -70.9550 212° Southwest 409 471 38,000  Level FlightAware
10:40AM 46.2730 -71.0220 213° Southwest 410 472 38,000  Level FlightAware
10:41AM 46.2100 -71.0810 213° Southwest 412 474 38,000  Level FlightAware
10:41AM 46.1380 -71.1470 212° Southwest 413 475 38,000  Level FlightAware
10:42AM 46.0740 -71.2070 213° Southwest 413 475 38,000  Level FlightAware
10:43AM 46.0020 -71.2730 212° Southwest 413 475 38,000  Level FlightAware
10:43AM 45.9370 -71.3330 213° Southwest 414 476 38,000  Level FlightAware
10:44AM 45.8740 -71.3910 213° Southwest 414 476 38,000  Level FlightAware
10:45AM 45.8010 -71.4570 212° Southwest 414 476 38,000  Level FlightAware
10:46AM 45.7370 -71.5160 213° Southwest 415 478 38,000  Level FlightAware
10:46AM 45.6720 -71.5750 212° Southwest 415 478 38,000  Level FlightAware
10:47AM 45.5990 -71.6400 212° Southwest 415 478 38,000  Level FlightAware
10:48AM 45.5350 -71.6980 212° Southwest 415 478 38,000  Level FlightAware
10:48AM 45.4620 -71.7640 212° Southwest 415 478 38,000  Level FlightAware
10:49AM 45.3970 -71.8220 212° Southwest 416 479 38,000  Level FlightAware
10:50AM 45.3320 -71.8800 212° Southwest 417 480 38,000  Level FlightAware
10:50AM 45.2590 -71.9440 212° Southwest 417 480 38,000  Level FlightAware
10:51AM 45.1940 -72.0020 212° Southwest 415 478 38,000  Level FlightAware
10:52AM 45.1210 -72.0660 212° Southwest 414 476 38,000  Level FlightAware
10:53AM 45.0570 -72.1230 212° Southwest 412 474 38,000  Level FlightAware
10:53AM 44.9920 -72.1800 212° Southwest 410 472 38,000  Level FlightAware
10:54AM 44.9210 -72.2420 212° Southwest 410 472 38,000  Level FlightAware
10:55AM 44.8560 -72.2990 212° Southwest 410 472 38,000  Level FlightAware
10:55AM 44.7880 -72.3580 212° Southwest 413 475 38,000  Level FlightAware
10:56AM 44.7190 -72.4150 210° Southwest 416 479 38,000  Level FlightAware
10:57AM 44.6520 -72.4680 209° Southwest 419 482 38,000  Level FlightAware
10:57AM 44.5730 -72.5310 210° Southwest 419 482 38,000  Level FlightAware
10:58AM 44.5100 -72.5830 210° Southwest 415 478 38,000  Level FlightAware
10:59AM 44.4360 -72.6420 210° Southwest 409 471 38,000  Level FlightAware
11:00AM 44.3700 -72.6940 209° Southwest 404 465 38,000  Level FlightAware
11:00AM 44.3020 -72.7480 210° Southwest 400 460 38,000  Level FlightAware
11:01AM 44.2330 -72.8030 210° Southwest 397 457 38,000  Level FlightAware
11:02AM 44.1700 -72.8530 210° Southwest 394 453 38,000  Level FlightAware
11:02AM 44.1050 -72.9040 209° Southwest 392 451 38,000  Level FlightAware
11:03AM 44.0340 -72.9600 210° Southwest 391 450 38,000  Level FlightAware
11:04AM 43.9690 -73.0100 209° Southwest 390 449 38,000 -240 Level FlightAware
11:04AM 43.9020 -73.0630 210° Southwest 390 449 37,700 -1,020 Descending FlightAware
11:05AM 43.8290 -73.1200 209° Southwest 395 455 36,500 -1,500 Descending FlightAware
11:06AM 43.7660 -73.1690 209° Southwest 398 458 35,600 -1,380 Descending FlightAware
11:06AM 43.7110 -73.2110 209° Southwest 401 461 34,800 -1,140 Descending FlightAware
11:07AM 43.6560 -73.2530 209° Southwest 396 456 34,100 -1,020 Descending FlightAware
11:08AM 43.5970 -73.2990 209° Southwest 388 447 33,500 -2,280 Descending FlightAware
11:09AM 43.5050 -73.3700 209° Southwest 389 448 30,900 -2,640 Descending FlightAware
11:09AM 43.4500 -73.4120 209° Southwest 388 447 29,400 -1,980 Descending FlightAware
11:10AM 43.3910 -73.4560 208° Southwest 380 437 28,100 -1,500 Descending FlightAware
11:11AM 43.3130 -73.5160 209° Southwest 373 429 27,100 -660 Descending FlightAware
11:12AM 43.2610 -73.5550 209° Southwest 373 429 27,100  Level FlightAware
11:12AM 43.2100 -73.5940 209° Southwest 373 429 27,100  Level FlightAware
11:13AM 43.1720 -73.6240 210° Southwest 373 429 27,100 -4,980 Level FlightAware
11:14AM 43.0480 -73.6580 191° South 356 410 20,900 -5,160 Descending FlightAware
11:14AM 42.9850 -73.6840 197° South 353 406 19,800 -1,680 Descending FlightAware
11:15AM 42.9160 -73.7130 197° South 353 406 18,600 -1,560 Descending FlightAware
11:16AM 42.8550 -73.7390 197° South 351 404 17,600 -1,620 Descending FlightAware
11:16AM 42.7920 -73.7650 197° South 348 400 16,500 -1,080 Descending FlightAware
11:17AM 42.7230 -73.7950 198° South 343 395 16,100 -300 Descending FlightAware
11:18AM 42.6700 -73.8190 198° South 348 400 16,100  Level FlightAware
11:18AM 42.5990 -73.8500 198° South 349 402 16,100  Level FlightAware
11:19AM 42.5150 -73.8870 198° South 348 400 16,100  Level FlightAware
11:20AM 42.4630 -73.9100 198° South 348 400 16,100  Level FlightAware
11:21AM 42.4110 -73.9330 198° South 348 400 16,100  Level FlightAware
11:21AM 42.3590 -73.9560 198° South 348 400 16,100  Level FlightAware
11:22AM 42.2940 -73.9840 198° South 348 400 16,100  Level FlightAware
11:23AM 42.2550 -74.0010 198° South 348 400 16,100 -600 Level FlightAware
11:28AM 41.7370 -74.2270 198° South 334 384 12,800 -900 Descending FlightAware
11:29AM 41.6650 -74.2580 198° South 330 380 10,900 -1,440 Descending FlightAware
11:30AM 41.5970 -74.2870 198° South 314 361 10,400 -300 Descending FlightAware
11:30AM 41.5380 -74.3110 197° South 314 361 10,400  Level FlightAware
11:31AM 41.4910 -74.3300 197° South 314 361 10,400 -720 Level FlightAware
11:35AM 41.1650 -74.4730 198° South 272 313 7,000 -720 Descending FlightAware
11:36AM 41.1357 -74.4852 197° South 276 318 7,000  Level FlightAware ADS-B
11:36AM 41.1173 -74.4932 198° South 276 318 7,000 180 Level FlightAware ADS-B
11:36AM 41.0985 -74.5012 198° South 275 316 7,100 -120 Climbing FlightAware ADS-B
11:37AM 41.0450 -74.5200 195° South 284 327 6,900 -540 Descending FlightAware
11:38AM 41.0030 -74.5300 190° South 285 328 6,400 -1,020 Descending FlightAware
11:38AM 40.9720 -74.5380 191° South 282 325 6,000 -600 Descending FlightAware
11:38AM 40.9510 -74.5410 186° South 278 320 6,000  Level FlightAware
11:39AM 40.9120 -74.5360 174° South 275 316 6,000  Level FlightAware
11:39AM 40.8973 -74.5340 174° South 273 314 6,000  Level FlightAware ADS-B
11:39AM 40.8734 -74.5306 174° South 276 318 6,000  Level FlightAware ADS-B
11:39AM 40.8611 -74.5289 174° South 280 322 6,000  Level FlightAware ADS-B
11:40AM 40.8542 -74.5280 174° South 275 316 6,000  Level FlightAware ADS-B
11:40AM 40.8290 -74.5243 174° South 276 318 6,000  Level FlightAware ADS-B
11:40AM 40.8077 -74.5211 174° South 271 312 6,000  Level FlightAware ADS-B
11:41AM 40.7795 -74.5168 173° South 258 297 6,000  Level FlightAware ADS-B
11:41AM 40.7603 -74.5143 174° South 251 289 6,000  Level FlightAware ADS-B
11:41AM 40.7433 -74.5120 174° South 248 285 6,000  Level FlightAware ADS-B
11:41AM 40.7225 -74.5092 174° South 241 277 6,000  Level FlightAware ADS-B
11:42AM 40.6640 -74.4990 172° South 234 269 6,000  Level FlightAware
11:42AM 40.6584 -74.4985 176° South 237 273 6,000 -480 Level FlightAware ADS-B
11:43AM 40.6485 -74.4971 174° South 239 275 5,900 -960 Descending FlightAware ADS-B
11:43AM 40.6302 -74.4949 175° South 238 274 5,600 -900 Descending FlightAware ADS-B
11:43AM 40.6180 -74.4937 176° South 235 270 5,500 -720 Descending FlightAware ADS-B
11:43AM 40.6015 -74.4921 176° South 233 268 5,300 -660 Descending FlightAware ADS-B
11:43AM 40.5861 -74.4909 177° South 235 270 5,200 -660 Descending FlightAware ADS-B
11:44AM 40.5804 -74.4901 174° South 236 272 5,100 -900 Descending FlightAware ADS-B
11:44AM 40.5715 -74.4865 163° South 239 275 5,000 -1,020 Descending FlightAware ADS-B
11:44AM 40.5686 -74.4844 151° Southeast 239 275 4,900 -600 Descending FlightAware ADS-B
11:44AM 40.5624 -74.4779 141° Southeast 237 273 4,900 -480 Level FlightAware ADS-B
11:44AM 40.5584 -74.4719 131° Southeast 236 272 4,800 -900 Descending FlightAware ADS-B
11:44AM 40.5483 -74.4542 127° Southeast 235 270 4,600 -840 Descending FlightAware ADS-B
11:44AM 40.5385 -74.4369 127° Southeast 232 267 4,400 -780 Descending FlightAware ADS-B
11:45AM 40.5288 -74.4199 127° Southeast 232 267 4,200 -780 Descending FlightAware ADS-B
11:45AM 40.5186 -74.4020 127° Southeast 235 270 4,000 -420 Descending FlightAware ADS-B
11:45AM 40.5093 -74.3857 127° Southeast 216 249 4,000  Level FlightAware ADS-B
11:45AM 40.5016 -74.3726 128° Southeast 207 238 4,000  Level FlightAware ADS-B
11:46AM 40.4997 -74.3692 126° Southeast 205 236 4,000 -780 Level FlightAware ADS-B
11:46AM 40.4929 -74.3575 127° Southeast 199 229 3,800 -720 Descending FlightAware ADS-B
11:46AM 40.4896 -74.3520 128° Southeast 196 226 3,800 -360 Level FlightAware ADS-B
11:46AM 40.4831 -74.3409 128° Southeast 187 215 3,700 -360 Descending FlightAware ADS-B
11:46AM 40.4800 -74.3351 125° Southeast 187 215 3,700 -780 Level FlightAware ADS-B
11:46AM 40.4755 -74.3260 123° Southeast 182 209 3,500 -720 Descending FlightAware ADS-B
11:47AM 40.4821 -74.2800 79° East 180 207 3,000 -480 Descending FlightAware ADS-B
11:47AM 40.4973 -74.2696 27° Northeast 182 209 3,000  Level FlightAware ADS-B
11:48AM 40.5111 -74.2609 26° Northeast 167 192 3,000  Level FlightAware ADS-B
11:48AM 40.5176 -74.2570 25° Northeast 166 191 3,000  Level FlightAware ADS-B
11:48AM 40.5332 -74.2479 24° Northeast 166 191 3,000  Level FlightAware ADS-B
11:49AM 40.5445 -74.2410 25° Northeast 174 200 3,000  Level FlightAware ADS-B
11:49AM 40.5523 -74.2360 26° Northeast 173 199 3,000  Level FlightAware ADS-B
11:49AM 40.5632 -74.2291 26° Northeast 175 201 3,000 -240 Level FlightAware ADS-B
11:49AM 40.5758 -74.2214 25° Northeast 176 203 2,900 -900 Descending FlightAware ADS-B
11:50AM 40.5986 -74.2072 25° Northeast 176 203 2,300 -1,080 Descending FlightAware ADS-B
11:50AM 40.6096 -74.2005 25° Northeast 171 197 2,100 -960 Descending FlightAware ADS-B
11:50AM 40.6213 -74.1931 26° Northeast 159 183 1,800 -840 Descending FlightAware ADS-B
11:51AM 40.6372 -74.1833 25° Northeast 154 177 1,500 -780 Descending FlightAware ADS-B
11:51AM 40.6455 -74.1782 25° Northeast 132 152 1,300 -960 Descending FlightAware ADS-B
11:51AM 40.6520 -74.1742 25° Northeast 131 151 1,100 -660 Descending FlightAware ADS-B
11:51AM 40.6602 -74.1691 25° Northeast 130 150 1,000 -660 Descending FlightAware ADS-B
11:52AM 40.6734 -74.1610 25° Northeast 133 153 700 -780 Descending FlightAware ADS-B
11:52AM 40.6819 -74.1557 25° Northeast 133 153 500 -840 Descending FlightAware ADS-B
11:52AM 40.6858 -74.1533 25° Northeast 135 155 400 -660 Descending FlightAware ADS-B
11:52AM 40.6928 -74.1490 25° Northeast 133 153 300 -540 Descending FlightAware ADS-B